createdAt,value
2022-08-23T00:02:25.704Z,101471.06
2022-08-23T00:05:07.846Z,101464.56
2022-08-23T00:07:41.331Z,101474.00
2022-08-23T00:10:13.116Z,101480.31
2022-08-23T00:12:40.526Z,101461.94
2022-08-23T00:15:08.832Z,101469.56
2022-08-23T00:17:36.239Z,101468.69
2022-08-23T00:20:10.143Z,101463.38
2022-08-23T00:22:37.438Z,101478.28
2022-08-23T00:25:05.569Z,101468.56
2022-08-23T00:27:33.445Z,101469.53
2022-08-23T00:30:00.263Z,101468.97
2022-08-23T00:32:32.726Z,101462.16
2022-08-23T00:35:00.411Z,101470.34
2022-08-23T00:37:28.366Z,101466.03
2022-08-23T00:39:55.038Z,101458.25
2022-08-23T00:42:49.689Z,101466.06
2022-08-23T00:45:37.097Z,101456.38
2022-08-23T00:48:04.229Z,101465.91
2022-08-23T00:50:35.991Z,101463.75
2022-08-23T00:53:16.661Z,101455.75
2022-08-23T00:55:45.505Z,101459.47
2022-08-23T00:58:14.612Z,101454.59
2022-08-23T01:00:41.292Z,101453.03
2022-08-23T01:03:09.454Z,101449.63
2022-08-23T01:06:11.012Z,101454.69
2022-08-23T01:08:38.645Z,101460.19
2022-08-23T01:11:11.985Z,101459.28
2022-08-23T01:13:53.494Z,101458.19
2022-08-23T01:16:27.041Z,101460.03
2022-08-23T01:18:55.000Z,101461.84
2022-08-23T01:21:30.340Z,101464.50
2022-08-23T01:24:01.001Z,101467.06
2022-08-23T01:26:28.331Z,101471.19
2022-08-23T01:28:54.905Z,101460.75
2022-08-23T01:31:23.816Z,101462.41
2022-08-23T01:33:54.726Z,101459.78
2022-08-23T01:36:22.115Z,101465.19
2022-08-23T01:38:49.167Z,101472.38
2022-08-23T01:41:15.728Z,101464.16
2022-08-23T01:43:42.330Z,101466.16
2022-08-23T01:46:12.039Z,101471.41
2022-08-23T01:48:38.742Z,101481.16
2022-08-23T01:51:05.927Z,101466.34
2022-08-23T01:53:32.454Z,101477.81
2022-08-23T01:55:59.173Z,101472.47
2022-08-23T01:58:25.698Z,101473.34
2022-08-23T02:00:52.237Z,101472.44
2022-08-23T02:03:18.763Z,101481.09
2022-08-23T02:05:45.923Z,101472.53
2022-08-23T02:08:31.821Z,101477.09
2022-08-23T02:10:59.157Z,101471.94
2022-08-23T02:13:25.851Z,101462.81
2022-08-23T02:15:52.571Z,101466.50
2022-08-23T02:18:20.676Z,101472.63
2022-08-23T02:20:50.051Z,101463.06
2022-08-23T02:23:17.436Z,101468.22
2022-08-23T02:25:44.386Z,101466.44
2022-08-23T02:28:11.089Z,101471.97
2022-08-23T02:30:37.736Z,101473.78
2022-08-23T02:33:04.404Z,101467.47
2022-08-23T02:35:33.810Z,101472.72
2022-08-23T02:38:05.382Z,101475.28
2022-08-23T02:40:31.982Z,101473.03
2022-08-23T02:43:00.059Z,101479.16
2022-08-23T02:45:27.807Z,101475.47
2022-08-23T02:47:54.529Z,101465.84
2022-08-23T02:50:21.485Z,101469.94
2022-08-23T02:52:48.062Z,101468.59
2022-08-23T02:55:14.888Z,101463.91
2022-08-23T02:57:41.482Z,101476.31
2022-08-23T03:00:10.446Z,101472.94
2022-08-23T03:02:38.399Z,101473.91
2022-08-23T03:05:06.445Z,101473.25
2022-08-23T03:07:33.160Z,101466.75
2022-08-23T03:10:01.351Z,101473.78
2022-08-23T03:12:28.344Z,101478.94
2022-08-23T03:14:54.914Z,101473.66
2022-08-23T03:17:21.486Z,101473.75
2022-08-23T03:19:48.512Z,101472.84
2022-08-23T03:22:15.265Z,101480.63
2022-08-23T03:24:41.834Z,101479.88
2022-08-23T03:27:08.561Z,101482.41
2022-08-23T03:29:35.249Z,101482.50
2022-08-23T03:32:02.194Z,101480.00
2022-08-23T03:34:29.037Z,101479.88
2022-08-23T03:36:56.307Z,101486.97
2022-08-23T03:39:23.034Z,101495.97
2022-08-23T03:41:49.534Z,101492.19
2022-08-23T03:44:16.212Z,101499.25
2022-08-23T03:46:42.756Z,101500.19
2022-08-23T03:49:09.270Z,101497.41
2022-08-23T03:51:36.289Z,101506.47
2022-08-23T03:54:03.316Z,101506.09
2022-08-23T03:56:39.070Z,101504.50
2022-08-23T03:59:11.582Z,101502.88
2022-08-23T04:01:38.179Z,101501.16
2022-08-23T04:04:05.272Z,101497.34
2022-08-23T04:06:33.163Z,101504.56
2022-08-23T04:09:00.002Z,101513.06
2022-08-23T04:11:27.645Z,101500.94
2022-08-23T04:13:54.189Z,101512.31
2022-08-23T04:16:20.798Z,101512.22
2022-08-23T04:18:47.573Z,101513.00
2022-08-23T04:21:17.370Z,101506.22
2022-08-23T04:23:44.613Z,101508.09
2022-08-23T04:26:11.523Z,101511.03
2022-08-23T04:28:38.929Z,101505.50
2022-08-23T04:31:06.362Z,101503.66
2022-08-23T04:33:34.452Z,101519.34
2022-08-23T04:36:01.773Z,101508.94
2022-08-23T04:38:28.547Z,101514.22
2022-08-23T04:41:14.207Z,101512.56
2022-08-23T04:43:41.225Z,101519.56
2022-08-23T04:46:07.790Z,101517.72
2022-08-23T04:48:35.389Z,101521.88
2022-08-23T04:51:02.215Z,101530.03
2022-08-23T04:53:35.016Z,101533.50
2022-08-23T04:56:03.169Z,101523.16
2022-08-23T04:58:30.900Z,101528.94
2022-08-23T05:00:59.479Z,101533.34
2022-08-23T05:03:27.148Z,101531.59
2022-08-23T05:05:54.470Z,101541.66
2022-08-23T05:08:21.083Z,101533.63
2022-08-23T05:10:47.653Z,101538.66
2022-08-23T05:13:14.142Z,101544.69
2022-08-23T05:15:40.707Z,101542.00
2022-08-23T05:18:07.334Z,101539.38
2022-08-23T05:20:34.062Z,101554.19
2022-08-23T05:23:01.208Z,101550.94
2022-08-23T05:25:47.966Z,101551.69
2022-08-23T05:28:14.651Z,101558.59
2022-08-23T05:30:41.425Z,101556.47
2022-08-23T05:33:14.422Z,101553.84
2022-08-23T05:35:40.925Z,101552.69
2022-08-23T05:38:07.434Z,101556.09
2022-08-23T05:40:33.945Z,101554.78
2022-08-23T05:43:00.426Z,101560.75
2022-08-23T05:45:27.037Z,101556.63
2022-08-23T05:47:54.025Z,101562.34
2022-08-23T05:50:26.928Z,101567.50
2022-08-23T05:52:53.417Z,101563.59
2022-08-23T05:55:19.910Z,101571.50
2022-08-23T05:57:49.033Z,101569.31
2022-08-23T06:00:15.791Z,101570.84
2022-08-23T06:02:43.002Z,101578.31
2022-08-23T06:05:09.790Z,101573.28
2022-08-23T06:07:37.575Z,101566.22
2022-08-23T06:10:04.972Z,101571.28
2022-08-23T06:12:32.115Z,101572.38
2022-08-23T06:14:58.615Z,101573.28
2022-08-23T06:17:25.318Z,101578.94
2022-08-23T06:19:51.826Z,101580.69
2022-08-23T06:22:18.843Z,101579.34
2022-08-23T06:24:45.371Z,101583.94
2022-08-23T06:27:12.460Z,101590.75
2022-08-23T06:29:39.496Z,101599.41
2022-08-23T06:32:06.590Z,101609.50
2022-08-23T06:34:35.839Z,101599.25
2022-08-23T06:37:04.832Z,101596.38
2022-08-23T06:39:36.776Z,101592.09
2022-08-23T06:42:38.257Z,101593.94
2022-08-23T06:45:03.006Z,101592.88
2022-08-23T06:47:29.516Z,101598.19
2022-08-23T06:49:58.405Z,101592.53
2022-08-23T06:52:27.318Z,101592.56
2022-08-23T06:54:53.927Z,101588.44
2022-08-23T06:57:20.628Z,101584.47
2022-08-23T06:59:51.047Z,101584.28
2022-08-23T07:02:17.638Z,101588.81
2022-08-23T07:04:44.361Z,101595.19
2022-08-23T07:07:12.075Z,101587.88
2022-08-23T07:09:39.671Z,101594.81
2022-08-23T07:12:06.686Z,101592.84
2022-08-23T07:14:33.588Z,101599.69
2022-08-23T07:17:01.445Z,101594.84
2022-08-23T07:19:31.130Z,101587.59
2022-08-23T07:22:00.335Z,101591.72
2022-08-23T07:24:32.102Z,101594.44
2022-08-23T07:27:01.242Z,101601.44
2022-08-23T07:29:28.689Z,101600.88
2022-08-23T07:31:56.442Z,101596.69
2022-08-23T07:34:24.235Z,101593.50
2022-08-23T07:36:52.492Z,101591.34
2022-08-23T07:39:20.563Z,101603.03
2022-08-23T07:41:47.131Z,101601.19
2022-08-23T07:44:18.520Z,101603.16
2022-08-23T07:46:46.483Z,101598.81
2022-08-23T07:49:13.705Z,101598.91
2022-08-23T07:51:41.751Z,101597.88
2022-08-23T07:54:10.409Z,101596.19
2022-08-23T07:56:37.370Z,101599.28
2022-08-23T07:59:05.639Z,101594.53
2022-08-23T08:01:32.401Z,101601.31
2022-08-23T08:04:00.506Z,101611.75
2022-08-23T08:06:29.183Z,101597.22
2022-08-23T08:08:56.556Z,101595.03
2022-08-23T08:11:25.518Z,101606.41
2022-08-23T08:13:52.426Z,101605.59
2022-08-23T08:16:33.034Z,101604.66
2022-08-23T08:19:01.227Z,101599.56
2022-08-23T08:21:28.869Z,101595.22
2022-08-23T08:23:57.490Z,101603.84
2022-08-23T08:26:25.021Z,101594.81
2022-08-23T08:28:52.292Z,101598.25
2022-08-23T08:31:18.847Z,101595.88
2022-08-23T08:33:45.358Z,101602.59
2022-08-23T08:36:31.179Z,101600.25
2022-08-23T08:39:00.613Z,101602.31
2022-08-23T08:42:00.397Z,101605.44
2022-08-23T08:44:41.590Z,101608.41
2022-08-23T08:47:18.096Z,101609.47
2022-08-23T08:49:53.240Z,101606.88
2022-08-23T08:52:26.437Z,101612.00
2022-08-23T08:55:02.245Z,101607.38
2022-08-23T08:57:32.367Z,101616.88
2022-08-23T09:00:01.089Z,101614.63
2022-08-23T09:02:33.770Z,101619.38
2022-08-23T09:05:08.286Z,101615.44
2022-08-23T09:07:40.776Z,101613.03
2022-08-23T09:10:10.319Z,101615.25
2022-08-23T09:12:49.866Z,101621.84
2022-08-23T09:15:16.453Z,101613.09
2022-08-23T09:17:46.682Z,101619.09
2022-08-23T09:20:15.102Z,101621.00
2022-08-23T09:22:45.397Z,101623.25
2022-08-23T09:25:13.662Z,101617.88
2022-08-23T09:27:43.085Z,101613.03
2022-08-23T09:30:14.339Z,101612.56
2022-08-23T09:32:44.162Z,101605.50
2022-08-23T09:35:25.776Z,101605.19
2022-08-23T09:38:04.646Z,101602.75
2022-08-23T09:40:34.223Z,101593.69
2022-08-23T09:43:08.595Z,101604.66
2022-08-23T09:45:38.185Z,101600.84
2022-08-23T09:48:06.429Z,101598.63
2022-08-23T09:50:43.303Z,101593.38
2022-08-23T09:53:12.375Z,101593.72
2022-08-23T09:55:38.882Z,101598.72
2022-08-23T09:58:27.166Z,101597.44
2022-08-23T10:01:05.732Z,101591.56
2022-08-23T10:03:32.211Z,101592.56
2022-08-23T10:06:00.953Z,101589.50
2022-08-23T10:08:40.898Z,101592.72
2022-08-23T10:11:24.014Z,101585.19
2022-08-23T10:13:51.310Z,101583.56
2022-08-23T10:16:48.227Z,101588.06
2022-08-23T10:19:51.229Z,101588.31
2022-08-23T10:22:24.032Z,101576.41
2022-08-23T10:25:02.668Z,101576.41
2022-08-23T10:28:12.157Z,101574.06
2022-08-23T10:31:02.740Z,101569.97
2022-08-23T10:33:44.058Z,101562.13
2022-08-23T10:36:35.522Z,101574.69
2022-08-23T10:39:05.034Z,101576.41
2022-08-23T10:41:46.847Z,101569.75
2022-08-23T10:44:19.300Z,101564.88
2022-08-23T10:47:05.933Z,101571.53
2022-08-23T10:49:36.609Z,101569.09
2022-08-23T10:52:06.164Z,101569.34
2022-08-23T10:54:49.025Z,101567.66
2022-08-23T10:57:17.148Z,101567.25
2022-08-23T10:59:46.055Z,101568.63
2022-08-23T11:02:33.664Z,101568.19
2022-08-23T11:05:07.727Z,101568.28
2022-08-23T11:07:37.458Z,101565.91
2022-08-23T11:10:31.878Z,101571.09
2022-08-23T11:13:02.440Z,101559.38
2022-08-23T11:15:44.647Z,101557.75
2022-08-23T11:18:37.714Z,101547.78
2022-08-23T11:21:26.279Z,101552.28
2022-08-23T11:23:58.705Z,101559.28
2022-08-23T11:26:29.495Z,101557.84
2022-08-23T11:29:08.216Z,101553.88
2022-08-23T11:31:36.644Z,101547.19
2022-08-23T11:34:06.241Z,101557.25
2022-08-23T11:36:34.333Z,101547.47
2022-08-23T11:39:05.382Z,101547.47
2022-08-23T11:41:53.866Z,101552.66
2022-08-23T11:44:28.170Z,101555.56
2022-08-23T11:46:55.437Z,101547.78
2022-08-23T11:49:44.901Z,101548.59
2022-08-23T11:52:32.186Z,101550.78
2022-08-23T11:55:15.786Z,101538.28
2022-08-23T11:57:54.813Z,101547.28
2022-08-23T12:00:27.733Z,101552.50
2022-08-23T12:03:05.024Z,101542.94
2022-08-23T12:05:34.647Z,101549.81
2022-08-23T12:08:01.284Z,101549.56
2022-08-23T12:10:40.355Z,101552.59
2022-08-23T12:13:27.948Z,101552.63
2022-08-23T12:16:16.542Z,101550.06
2022-08-23T12:18:47.643Z,101552.09
2022-08-23T12:21:21.197Z,101546.53
2022-08-23T12:23:53.033Z,101547.03
2022-08-23T12:26:31.019Z,101547.78
2022-08-23T12:29:04.163Z,101549.75
2022-08-23T12:31:39.751Z,101537.56
2022-08-23T12:34:25.959Z,101541.22
2022-08-23T12:37:14.360Z,101534.59
2022-08-23T12:39:51.063Z,101541.75
2022-08-23T12:42:20.938Z,101547.28
2022-08-23T12:45:02.538Z,101538.38
2022-08-23T12:47:29.561Z,101535.91
2022-08-23T12:50:09.262Z,101540.94
2022-08-23T12:52:37.543Z,101535.00
2022-08-23T12:55:14.065Z,101537.81
2022-08-23T12:57:43.009Z,101536.03
2022-08-23T13:00:35.982Z,101541.88
2022-08-23T13:03:02.790Z,101543.84
2022-08-23T13:05:39.955Z,101538.09
2022-08-23T13:08:16.644Z,101540.56
2022-08-23T13:10:44.298Z,101529.88
2022-08-23T13:13:13.025Z,101540.19
2022-08-23T13:15:58.532Z,101527.88
2022-08-23T13:18:40.322Z,101521.31
2022-08-23T13:21:28.733Z,101527.69
2022-08-23T13:24:47.290Z,101517.03
2022-08-23T13:27:28.856Z,101512.53
2022-08-23T13:30:10.882Z,101523.78
2022-08-23T13:32:43.557Z,101522.50
2022-08-23T13:35:38.883Z,101528.75
2022-08-23T13:38:08.512Z,101513.88
2022-08-23T13:40:54.535Z,101508.59
2022-08-23T13:43:26.790Z,101519.28
2022-08-23T13:45:56.310Z,101523.22
2022-08-23T13:48:32.252Z,101512.25
2022-08-23T13:51:31.024Z,101511.03
2022-08-23T13:53:59.380Z,101518.63
2022-08-23T13:56:27.566Z,101514.84
2022-08-23T13:58:59.005Z,101509.41
2022-08-23T14:01:25.638Z,101510.31
2022-08-23T14:03:52.814Z,101516.38
2022-08-23T14:06:19.879Z,101515.19
2022-08-23T14:08:48.273Z,101523.59
2022-08-23T14:11:16.039Z,101513.03
2022-08-23T14:13:44.936Z,101522.84
2022-08-23T14:16:33.446Z,101521.78
2022-08-23T14:19:54.851Z,101533.69
2022-08-23T14:21:47.990Z,101525.69
2022-08-23T14:24:14.786Z,101526.22
2022-08-23T14:26:50.140Z,101526.63
2022-08-23T14:29:19.729Z,101523.66
2022-08-23T14:31:49.554Z,101522.16
2022-08-23T14:34:16.099Z,101522.19
2022-08-23T14:37:21.685Z,101524.38
2022-08-23T14:39:29.339Z,101523.59
2022-08-23T14:41:55.860Z,101531.25
2022-08-23T14:44:22.382Z,101513.91
2022-08-23T14:46:48.906Z,101518.78
2022-08-23T14:49:15.593Z,101519.16
2022-08-23T14:51:46.322Z,101522.84
2022-08-23T14:54:23.027Z,101516.28
2022-08-23T14:56:49.659Z,101527.59
2022-08-23T14:59:16.357Z,101515.00
2022-08-23T15:01:43.154Z,101517.16
2022-08-23T15:04:09.744Z,101519.78
2022-08-23T15:06:36.794Z,101519.94
2022-08-23T15:09:03.813Z,101516.09
2022-08-23T15:14:17.289Z,101514.25
2022-08-23T15:16:43.858Z,101522.19
2022-08-23T15:19:10.454Z,101511.56
2022-08-23T15:21:37.033Z,101525.34
2022-08-23T15:24:04.089Z,101515.69
2022-08-23T15:26:31.860Z,101517.84
2022-08-23T15:28:59.612Z,101526.56
2022-08-23T15:31:26.920Z,101516.25
2022-08-23T15:33:53.520Z,101518.81
2022-08-23T15:36:20.132Z,101521.84
2022-08-23T15:38:48.345Z,101513.66
2022-08-23T15:41:16.978Z,101519.81
2022-08-23T15:43:44.492Z,101520.59
2022-08-23T15:46:16.426Z,101515.22
2022-08-23T15:48:54.876Z,101520.06
2022-08-23T15:51:23.121Z,101523.78
2022-08-23T15:53:49.699Z,101512.56
2022-08-23T15:56:27.618Z,101510.16
2022-08-23T15:58:54.443Z,101498.63
2022-08-23T16:01:24.664Z,101507.38
2022-08-23T16:03:51.867Z,101506.53
2022-08-23T16:06:18.382Z,101511.34
2022-08-23T16:08:48.758Z,101512.38
2022-08-23T16:11:15.366Z,101511.63
2022-08-23T16:13:44.816Z,101512.13
2022-08-23T16:16:14.463Z,101509.16
2022-08-23T16:18:41.029Z,101509.09
2022-08-23T16:21:08.062Z,101514.22
2022-08-23T16:23:34.845Z,101517.88
2022-08-23T16:26:01.604Z,101517.56
2022-08-23T16:28:28.148Z,101519.44
2022-08-23T16:30:54.757Z,101524.31
2022-08-23T16:33:21.310Z,101517.72
2022-08-23T16:35:47.781Z,101515.78
2022-08-23T16:38:14.278Z,101518.88
2022-08-23T16:40:40.762Z,101514.19
2022-08-23T16:43:07.228Z,101510.31
2022-08-23T16:45:33.793Z,101521.97
2022-08-23T16:48:01.483Z,101531.09
2022-08-23T16:50:28.169Z,101523.22
2022-08-23T16:52:54.667Z,101528.25
2022-08-23T16:55:21.417Z,101528.25
2022-08-23T16:57:47.977Z,101534.28
2022-08-23T17:00:15.416Z,101539.69
2022-08-23T17:02:43.666Z,101534.41
2022-08-23T17:05:14.561Z,101539.75
2022-08-23T17:07:41.328Z,101541.56
2022-08-23T17:10:09.758Z,101543.19
2022-08-23T17:12:38.429Z,101550.09
2022-08-23T17:15:07.340Z,101548.94
2022-08-23T17:17:33.842Z,101540.56
2022-08-23T17:20:00.521Z,101545.84
2022-08-23T17:22:28.263Z,101547.66
2022-08-23T17:24:54.753Z,101546.25
2022-08-23T17:27:21.648Z,101543.69
2022-08-23T17:29:48.210Z,101545.63
2022-08-23T17:32:17.260Z,101551.38
2022-08-23T17:34:43.775Z,101551.63
2022-08-23T17:37:24.490Z,101562.19
2022-08-23T17:39:51.510Z,101561.63
2022-08-23T17:42:23.730Z,101554.97
2022-08-23T17:44:50.234Z,101564.38
2022-08-23T17:47:17.933Z,101560.91
2022-08-23T17:49:46.530Z,101571.97
2022-08-23T17:52:13.621Z,101578.81
2022-08-23T17:54:40.491Z,101571.56
2022-08-23T17:57:08.713Z,101578.16
2022-08-23T17:59:35.573Z,101575.78
2022-08-23T18:02:02.308Z,101580.91
2022-08-23T18:04:28.873Z,101586.66
2022-08-23T18:06:56.563Z,101586.22
2022-08-23T18:09:23.151Z,101590.97
2022-08-23T18:11:49.670Z,101592.81
2022-08-23T18:14:16.945Z,101591.88
2022-08-23T18:16:45.554Z,101593.13
2022-08-23T18:19:13.454Z,101597.38
2022-08-23T18:21:44.005Z,101595.78
2022-08-23T18:24:10.612Z,101597.53
2022-08-23T18:26:55.850Z,101600.03
2022-08-23T18:29:22.768Z,101601.84
2022-08-23T18:31:49.288Z,101606.31
2022-08-23T18:34:16.133Z,101611.72
2022-08-23T18:36:45.006Z,101612.25
2022-08-23T18:39:13.773Z,101615.00
2022-08-23T18:41:45.616Z,101621.78
2022-08-23T18:44:12.751Z,101627.44
2022-08-23T18:46:42.822Z,101627.81
2022-08-23T18:49:11.435Z,101624.47
2022-08-23T18:51:39.575Z,101629.38
2022-08-23T18:54:06.883Z,101630.66
2022-08-23T18:56:34.967Z,101634.00
2022-08-23T18:59:02.211Z,101640.22
2022-08-23T19:01:32.448Z,101641.97
2022-08-23T19:04:00.375Z,101635.47
2022-08-23T19:06:28.096Z,101641.66
2022-08-23T19:08:55.313Z,101645.25
2022-08-23T19:11:23.408Z,101646.66
2022-08-23T19:13:51.156Z,101655.81
2022-08-23T19:16:20.070Z,101659.31
2022-08-23T19:18:49.027Z,101657.00
2022-08-23T19:21:18.965Z,101659.69
2022-08-23T19:23:47.091Z,101658.25
2022-08-23T19:26:25.925Z,101661.22
2022-08-23T19:28:53.015Z,101668.25
2022-08-23T19:31:19.681Z,101668.03
2022-08-23T19:33:47.238Z,101660.28
2022-08-23T19:36:35.619Z,101671.25
2022-08-23T19:39:00.377Z,101670.38
2022-08-23T19:41:26.958Z,101677.69
2022-08-23T19:43:53.543Z,101672.72
2022-08-23T19:46:20.623Z,101678.91
2022-08-23T19:48:48.187Z,101674.88
2022-08-23T19:51:16.987Z,101673.78
2022-08-23T19:54:03.748Z,101669.44
2022-08-23T19:56:39.209Z,101672.75
2022-08-23T19:59:08.885Z,101675.94
2022-08-23T20:01:36.730Z,101686.00
2022-08-23T20:04:03.905Z,101686.41
2022-08-23T20:06:34.875Z,101693.72
2022-08-23T20:09:01.642Z,101683.19
2022-08-23T20:11:29.867Z,101681.16
2022-08-23T20:13:57.060Z,101684.84
2022-08-23T20:16:26.946Z,101680.19
2022-08-23T20:18:55.339Z,101686.38
2022-08-23T20:21:23.810Z,101688.38
2022-08-23T20:24:04.328Z,101686.19
2022-08-23T20:26:35.359Z,101689.88
2022-08-23T20:29:22.335Z,101691.50
2022-08-23T20:34:23.614Z,101695.03
2022-08-23T20:36:55.942Z,101701.69
2022-08-23T20:39:24.167Z,101698.84
2022-08-23T20:41:52.334Z,101701.25
2022-08-23T20:44:20.367Z,101697.66
2022-08-23T20:46:50.728Z,101697.72
2022-08-23T20:49:19.961Z,101700.25
2022-08-23T20:51:46.630Z,101695.75
2022-08-23T20:54:14.650Z,101704.28
2022-08-23T20:56:41.227Z,101707.13
2022-08-23T20:59:08.210Z,101704.03
2022-08-23T21:01:35.686Z,101711.34
2022-08-23T21:04:02.341Z,101708.13
2022-08-23T21:06:31.231Z,101703.38
2022-08-23T21:08:59.326Z,101702.91
2022-08-23T21:11:28.285Z,101703.91
2022-08-23T21:13:56.672Z,101704.34
2022-08-23T21:16:24.010Z,101708.47
2022-08-23T21:18:52.023Z,101707.47
2022-08-23T21:21:21.990Z,101718.31
2022-08-23T21:23:49.082Z,101713.16
2022-08-23T21:26:16.069Z,101707.38
2022-08-23T21:28:42.688Z,101708.53
2022-08-23T21:31:32.085Z,101709.28
2022-08-23T21:34:00.511Z,101704.16
2022-08-23T21:36:27.937Z,101706.13
2022-08-23T21:38:54.978Z,101692.00
2022-08-23T21:41:33.187Z,101701.56
2022-08-23T21:44:00.469Z,101697.47
2022-08-23T21:46:27.170Z,101699.03
2022-08-23T21:48:53.870Z,101694.63
2022-08-23T21:51:25.788Z,101686.78
2022-08-23T21:53:52.950Z,101685.22
2022-08-23T21:56:20.843Z,101689.72
2022-08-23T21:58:50.640Z,101686.09
2022-08-23T22:01:18.785Z,101693.19
2022-08-23T22:03:45.421Z,101691.50
2022-08-23T22:06:16.818Z,101687.69
2022-08-23T22:08:44.498Z,101687.94
2022-08-23T22:11:12.442Z,101687.25
2022-08-23T22:13:40.107Z,101691.56
2022-08-23T22:16:07.218Z,101691.78
2022-08-23T22:18:34.586Z,101698.00
2022-08-23T22:21:01.749Z,101690.88
2022-08-23T22:23:29.405Z,101686.84
2022-08-23T22:25:57.745Z,101692.03
2022-08-23T22:28:24.326Z,101687.34
2022-08-23T22:30:51.373Z,101692.00
2022-08-23T22:33:20.622Z,101688.91
2022-08-23T22:35:48.906Z,101694.72
2022-08-23T22:38:15.940Z,101688.00
2022-08-23T22:40:52.710Z,101689.59
2022-08-23T22:43:20.209Z,101692.66
2022-08-23T22:45:54.363Z,101693.25
2022-08-23T22:48:21.570Z,101695.09
2022-08-23T22:50:48.588Z,101696.94
2022-08-23T22:53:16.138Z,101697.13
2022-08-23T22:55:42.634Z,101701.34
2022-08-23T22:58:09.546Z,101700.41
2022-08-23T23:00:41.953Z,101701.31
2022-08-23T23:03:08.645Z,101704.03
2022-08-23T23:05:37.305Z,101699.81
2022-08-23T23:08:22.507Z,101699.53
2022-08-23T23:10:49.001Z,101703.22
2022-08-23T23:13:15.482Z,101703.28
2022-08-23T23:15:42.025Z,101697.22
2022-08-23T23:18:08.575Z,101701.69
2022-08-23T23:20:39.228Z,101701.94
2022-08-23T23:23:08.228Z,101702.78
2022-08-23T23:25:34.919Z,101695.47
2022-08-23T23:28:02.600Z,101694.44
2022-08-23T23:30:29.744Z,101687.03
2022-08-23T23:32:56.869Z,101691.34
2022-08-23T23:35:23.562Z,101686.19
2022-08-23T23:37:50.326Z,101688.63
2022-08-23T23:40:17.356Z,101690.41
2022-08-23T23:42:44.118Z,101703.63
2022-08-23T23:45:11.618Z,101695.75
2022-08-23T23:47:38.393Z,101697.63
2022-08-23T23:50:06.582Z,101700.34
2022-08-23T23:52:33.953Z,101689.72
2022-08-23T23:55:03.551Z,101696.91
2022-08-23T23:57:30.773Z,101697.00
2022-08-23T23:59:57.300Z,101696.78
